sensor_id;sensor_type;location;lat;lon;timestamp;temperature;humidity
15872;DHT22;8035;51.962;7.162;2023-05-10T00:01:07;14.40;99.90
15872;DHT22;8035;51.962;7.162;2023-05-10T00:03:33;14.30;99.90
15872;DHT22;8035;51.962;7.162;2023-05-10T00:05:58;14.20;99.90
15872;DHT22;8035;51.962;7.162;2023-05-10T00:08:24;14.00;99.90
15872;DHT22;8035;51.962;7.162;2023-05-10T00:10:50;14.00;99.90
15872;DHT22;8035;51.962;7.162;2023-05-10T00:13:15;14.00;99.90
15872;DHT22;8035;51.962;7.162;2023-05-10T00:15:41;13.90;99.90
15872;DHT22;8035;51.962;7.162;2023-05-10T00:18:07;13.80;99.90
15872;DHT22;8035;51.962;7.162;2023-05-10T00:20:32;13.80;99.90
15872;DHT22;8035;51.962;7.162;2023-05-10T00:22:58;13.80;99.90
15872;DHT22;8035;51.962;7.162;2023-05-10T00:25:23;13.80;99.90
15872;DHT22;8035;51.962;7.162;2023-05-10T00:27:49;13.70;99.90
15872;DHT22;8035;51.962;7.162;2023-05-10T00:30:15;13.70;99.90
15872;DHT22;8035;51.962;7.162;2023-05-10T00:32:40;13.70;99.90
15872;DHT22;8035;51.962;7.162;2023-05-10T00:35:06;13.70;99.90
15872;DHT22;8035;51.962;7.162;2023-05-10T00:37:32;13.70;99.90
15872;DHT22;8035;51.962;7.162;2023-05-10T00:39:57;13.80;99.90
15872;DHT22;8035;51.962;7.162;2023-05-10T00:42:23;13.80;99.90
15872;DHT22;8035;51.962;7.162;2023-05-10T00:44:48;13.80;99.90
15872;DHT22;8035;51.962;7.162;2023-05-10T00:47:14;13.80;99.90
15872;DHT22;8035;51.962;7.162;2023-05-10T00:49:41;13.70;99.90
15872;DHT22;8035;51.962;7.162;2023-05-10T00:52:07;13.60;99.90
15872;DHT22;8035;51.962;7.162;2023-05-10T00:54:33;13.50;99.90
15872;DHT22;8035;51.962;7.162;2023-05-10T00:56:59;13.50;99.90
15872;DHT22;8035;51.962;7.162;2023-05-10T00:59:24;13.40;99.90
15872;DHT22;8035;51.962;7.162;2023-05-10T01:01:50;13.30;99.90
15872;DHT22;8035;51.962;7.162;2023-05-10T01:04:18;13.20;99.90
15872;DHT22;8035;51.962;7.162;2023-05-10T01:06:45;13.10;99.90
15872;DHT22;8035;51.962;7.162;2023-05-10T01:09:10;13.10;99.90
15872;DHT22;8035;51.962;7.162;2023-05-10T01:11:38;13.10;99.90
15872;DHT22;8035;51.962;7.162;2023-05-10T01:14:05;13.10;99.90
15872;DHT22;8035;51.962;7.162;2023-05-10T01:16:39;13.10;99.90
15872;DHT22;8035;51.962;7.162;2023-05-10T01:19:28;13.10;99.90
15872;DHT22;8035;51.962;7.162;2023-05-10T01:22:31;13.10;99.90
15872;DHT22;8035;51.962;7.162;2023-05-10T01:28:09;13.10;99.90
15872;DHT22;8035;51.962;7.162;2023-05-10T01:31:03;13.00;99.90
15872;DHT22;8035;51.962;7.162;2023-05-10T01:39:11;12.90;99.90
15872;DHT22;8035;51.962;7.162;2023-05-10T01:41:52;12.90;99.90
15872;DHT22;8035;51.962;7.162;2023-05-10T01:47:11;12.90;99.90
15872;DHT22;8035;51.962;7.162;2023-05-10T01:49:49;12.80;99.90
15872;DHT22;8035;51.962;7.162;2023-05-10T01:52:17;12.80;99.90
15872;DHT22;8035;51.962;7.162;2023-05-10T01:55:02;12.80;99.90
15872;DHT22;8035;51.962;7.162;2023-05-10T01:57:34;12.80;99.90
15872;DHT22;8035;51.962;7.162;2023-05-10T02:00:02;12.90;99.90
15872;DHT22;8035;51.962;7.162;2023-05-10T02:02:35;12.80;99.90
15872;DHT22;8035;51.962;7.162;2023-05-10T02:05:05;12.90;99.90
15872;DHT22;8035;51.962;7.162;2023-05-10T02:07:32;12.80;99.90
15872;DHT22;8035;51.962;7.162;2023-05-10T02:10:01;12.80;99.90
15872;DHT22;8035;51.962;7.162;2023-05-10T02:12:27;12.80;99.90
15872;DHT22;8035;51.962;7.162;2023-05-10T02:14:55;12.80;99.90
15872;DHT22;8035;51.962;7.162;2023-05-10T02:17:23;12.80;99.90
15872;DHT22;8035;51.962;7.162;2023-05-10T02:19:50;12.70;99.90
15872;DHT22;8035;51.962;7.162;2023-05-10T02:22:17;12.70;99.90
15872;DHT22;8035;51.962;7.162;2023-05-10T02:24:45;12.70;99.90
15872;DHT22;8035;51.962;7.162;2023-05-10T02:27:12;12.70;99.90
15872;DHT22;8035;51.962;7.162;2023-05-10T02:29:39;12.70;99.90
15872;DHT22;8035;51.962;7.162;2023-05-10T02:32:05;12.70;99.90
15872;DHT22;8035;51.962;7.162;2023-05-10T02:34:31;12.70;99.90
15872;DHT22;8035;51.962;7.162;2023-05-10T02:36:58;12.70;99.90
15872;DHT22;8035;51.962;7.162;2023-05-10T02:39:25;12.70;99.90
15872;DHT22;8035;51.962;7.162;2023-05-10T02:41:52;12.70;99.90
15872;DHT22;8035;51.962;7.162;2023-05-10T02:44:19;12.70;99.90
15872;DHT22;8035;51.962;7.162;2023-05-10T02:46:46;12.70;99.90
15872;DHT22;8035;51.962;7.162;2023-05-10T02:49:12;12.80;99.90
15872;DHT22;8035;51.962;7.162;2023-05-10T02:51:41;12.80;99.90
15872;DHT22;8035;51.962;7.162;2023-05-10T02:54:12;12.70;99.90
15872;DHT22;8035;51.962;7.162;2023-05-10T02:56:42;12.80;99.90
15872;DHT22;8035;51.962;7.162;2023-05-10T02:59:10;12.70;99.90
15872;DHT22;8035;51.962;7.162;2023-05-10T03:01:36;12.70;99.90
15872;DHT22;8035;51.962;7.162;2023-05-10T03:04:02;12.70;99.90
15872;DHT22;8035;51.962;7.162;2023-05-10T03:06:28;12.70;99.90
15872;DHT22;8035;51.962;7.162;2023-05-10T03:08:53;12.80;99.90
15872;DHT22;8035;51.962;7.162;2023-05-10T03:11:36;12.80;99.90
15872;DHT22;8035;51.962;7.162;2023-05-10T03:17:07;12.80;99.90
15872;DHT22;8035;51.962;7.162;2023-05-10T03:19:53;12.80;99.90
15872;DHT22;8035;51.962;7.162;2023-05-10T03:22:47;12.80;99.90
15872;DHT22;8035;51.962;7.162;2023-05-10T03:25:15;12.80;99.90
15872;DHT22;8035;51.962;7.162;2023-05-10T03:27:43;12.80;99.90
15872;DHT22;8035;51.962;7.162;2023-05-10T03:30:11;12.80;99.90
15872;DHT22;8035;51.962;7.162;2023-05-10T03:32:38;12.80;99.90
15872;DHT22;8035;51.962;7.162;2023-05-10T03:35:08;12.80;99.90
15872;DHT22;8035;51.962;7.162;2023-05-10T03:37:34;12.80;99.90
15872;DHT22;8035;51.962;7.162;2023-05-10T03:39:59;12.80;99.90
15872;DHT22;8035;51.962;7.162;2023-05-10T03:42:25;12.80;99.90
15872;DHT22;8035;51.962;7.162;2023-05-10T03:44:51;12.80;99.90
15872;DHT22;8035;51.962;7.162;2023-05-10T03:47:17;12.80;99.90
15872;DHT22;8035;51.962;7.162;2023-05-10T03:49:42;12.80;99.90
15872;DHT22;8035;51.962;7.162;2023-05-10T03:52:08;12.80;99.90
15872;DHT22;8035;51.962;7.162;2023-05-10T03:54:34;12.80;99.90
15872;DHT22;8035;51.962;7.162;2023-05-10T03:56:59;12.80;99.90
15872;DHT22;8035;51.962;7.162;2023-05-10T03:59:26;12.80;99.90
15872;DHT22;8035;51.962;7.162;2023-05-10T04:01:52;12.70;99.90
15872;DHT22;8035;51.962;7.162;2023-05-10T04:04:17;12.80;99.90
15872;DHT22;8035;51.962;7.162;2023-05-10T04:06:44;12.80;99.90
15872;DHT22;8035;51.962;7.162;2023-05-10T04:09:10;12.80;99.90
15872;DHT22;8035;51.962;7.162;2023-05-10T04:11:36;12.80;99.90
15872;DHT22;8035;51.962;7.162;2023-05-10T04:14:01;12.80;99.90
15872;DHT22;8035;51.962;7.162;2023-05-10T04:16:27;12.80;99.90
15872;DHT22;8035;51.962;7.162;2023-05-10T04:18:52;12.90;99.90
15872;DHT22;8035;51.962;7.162;2023-05-10T04:21:18;12.90;99.90
15872;DHT22;8035;51.962;7.162;2023-05-10T04:23:44;12.90;99.90
15872;DHT22;8035;51.962;7.162;2023-05-10T04:26:09;12.90;99.90
15872;DHT22;8035;51.962;7.162;2023-05-10T04:28:35;13.00;99.90
15872;DHT22;8035;51.962;7.162;2023-05-10T04:31:07;13.00;99.90
15872;DHT22;8035;51.962;7.162;2023-05-10T04:33:33;13.00;99.90
15872;DHT22;8035;51.962;7.162;2023-05-10T04:35:59;13.00;99.90
15872;DHT22;8035;51.962;7.162;2023-05-10T04:38:25;13.00;99.90
15872;DHT22;8035;51.962;7.162;2023-05-10T04:40:51;12.90;99.90
15872;DHT22;8035;51.962;7.162;2023-05-10T04:43:16;12.90;99.90
15872;DHT22;8035;51.962;7.162;2023-05-10T04:45:42;13.00;99.90
15872;DHT22;8035;51.962;7.162;2023-05-10T04:48:07;13.00;99.90
15872;DHT22;8035;51.962;7.162;2023-05-10T04:50:33;13.00;99.90
15872;DHT22;8035;51.962;7.162;2023-05-10T04:52:59;13.00;99.90
15872;DHT22;8035;51.962;7.162;2023-05-10T04:55:24;13.00;99.90
15872;DHT22;8035;51.962;7.162;2023-05-10T04:57:50;13.00;99.90
15872;DHT22;8035;51.962;7.162;2023-05-10T05:00:16;13.00;99.90
15872;DHT22;8035;51.962;7.162;2023-05-10T05:02:43;13.00;99.90
15872;DHT22;8035;51.962;7.162;2023-05-10T05:05:09;13.00;99.90
15872;DHT22;8035;51.962;7.162;2023-05-10T05:07:35;13.00;99.90
15872;DHT22;8035;51.962;7.162;2023-05-10T05:10:01;13.00;99.90
15872;DHT22;8035;51.962;7.162;2023-05-10T05:12:26;13.10;99.90
15872;DHT22;8035;51.962;7.162;2023-05-10T05:14:52;13.10;99.90
15872;DHT22;8035;51.962;7.162;2023-05-10T05:17:17;13.10;99.90
15872;DHT22;8035;51.962;7.162;2023-05-10T05:19:43;13.10;99.90
15872;DHT22;8035;51.962;7.162;2023-05-10T05:22:09;13.10;99.90
15872;DHT22;8035;51.962;7.162;2023-05-10T05:24:35;13.10;99.90
15872;DHT22;8035;51.962;7.162;2023-05-10T05:27:03;13.10;99.90
15872;DHT22;8035;51.962;7.162;2023-05-10T05:29:29;13.10;99.90
15872;DHT22;8035;51.962;7.162;2023-05-10T05:31:55;13.10;99.90
15872;DHT22;8035;51.962;7.162;2023-05-10T05:34:20;13.10;99.90
15872;DHT22;8035;51.962;7.162;2023-05-10T05:36:47;13.10;99.90
15872;DHT22;8035;51.962;7.162;2023-05-10T05:39:12;13.00;99.90
15872;DHT22;8035;51.962;7.162;2023-05-10T05:41:38;13.00;99.90
15872;DHT22;8035;51.962;7.162;2023-05-10T05:44:03;13.00;99.90
15872;DHT22;8035;51.962;7.162;2023-05-10T05:46:29;13.10;99.90
15872;DHT22;8035;51.962;7.162;2023-05-10T05:48:55;13.10;99.90
15872;DHT22;8035;51.962;7.162;2023-05-10T05:51:21;13.10;99.90
15872;DHT22;8035;51.962;7.162;2023-05-10T05:53:46;13.20;99.90
15872;DHT22;8035;51.962;7.162;2023-05-10T05:56:12;13.20;99.90
15872;DHT22;8035;51.962;7.162;2023-05-10T05:58:37;13.20;99.90
15872;DHT22;8035;51.962;7.162;2023-05-10T06:01:03;13.30;99.90
15872;DHT22;8035;51.962;7.162;2023-05-10T06:03:29;13.40;99.90
15872;DHT22;8035;51.962;7.162;2023-05-10T06:05:55;13.40;99.90
15872;DHT22;8035;51.962;7.162;2023-05-10T06:08:20;13.40;99.90
15872;DHT22;8035;51.962;7.162;2023-05-10T06:10:46;13.40;99.90
15872;DHT22;8035;51.962;7.162;2023-05-10T06:13:12;13.40;99.90
15872;DHT22;8035;51.962;7.162;2023-05-10T06:15:38;13.40;99.90
15872;DHT22;8035;51.962;7.162;2023-05-10T06:18:03;13.40;99.90
15872;DHT22;8035;51.962;7.162;2023-05-10T06:20:29;13.50;99.90
15872;DHT22;8035;51.962;7.162;2023-05-10T06:22:57;13.50;99.90
15872;DHT22;8035;51.962;7.162;2023-05-10T06:25:23;13.50;99.90
15872;DHT22;8035;51.962;7.162;2023-05-10T06:27:48;13.50;99.90
15872;DHT22;8035;51.962;7.162;2023-05-10T06:30:14;13.50;99.90
15872;DHT22;8035;51.962;7.162;2023-05-10T06:32:41;13.50;99.90
15872;DHT22;8035;51.962;7.162;2023-05-10T06:35:07;13.50;99.90
15872;DHT22;8035;51.962;7.162;2023-05-10T06:37:33;13.50;99.90
15872;DHT22;8035;51.962;7.162;2023-05-10T06:39:59;13.50;99.90
15872;DHT22;8035;51.962;7.162;2023-05-10T06:42:26;13.50;99.90
15872;DHT22;8035;51.962;7.162;2023-05-10T06:44:52;13.40;99.90
15872;DHT22;8035;51.962;7.162;2023-05-10T06:47:18;13.50;99.90
15872;DHT22;8035;51.962;7.162;2023-05-10T06:49:44;13.50;99.90
15872;DHT22;8035;51.962;7.162;2023-05-10T06:52:09;13.60;99.90
15872;DHT22;8035;51.962;7.162;2023-05-10T06:54:35;13.60;99.90
15872;DHT22;8035;51.962;7.162;2023-05-10T06:57:00;13.70;99.90
15872;DHT22;8035;51.962;7.162;2023-05-10T06:59:28;13.90;99.90
15872;DHT22;8035;51.962;7.162;2023-05-10T07:01:53;14.00;99.90
15872;DHT22;8035;51.962;7.162;2023-05-10T07:04:19;14.10;99.90
15872;DHT22;8035;51.962;7.162;2023-05-10T07:06:45;14.10;99.90
15872;DHT22;8035;51.962;7.162;2023-05-10T07:09:11;14.10;99.90
15872;DHT22;8035;51.962;7.162;2023-05-10T07:11:37;14.10;99.90
15872;DHT22;8035;51.962;7.162;2023-05-10T07:14:02;14.10;99.90
15872;DHT22;8035;51.962;7.162;2023-05-10T07:16:28;14.20;99.90
15872;DHT22;8035;51.962;7.162;2023-05-10T07:18:54;14.20;99.90
15872;DHT22;8035;51.962;7.162;2023-05-10T07:21:19;14.30;99.90
15872;DHT22;8035;51.962;7.162;2023-05-10T07:23:45;14.50;99.90
15872;DHT22;8035;51.962;7.162;2023-05-10T07:26:11;14.50;99.90
15872;DHT22;8035;51.962;7.162;2023-05-10T07:28:36;14.50;99.90
15872;DHT22;8035;51.962;7.162;2023-05-10T07:31:03;14.50;99.90
15872;DHT22;8035;51.962;7.162;2023-05-10T07:33:28;14.50;99.90
15872;DHT22;8035;51.962;7.162;2023-05-10T07:35:54;14.40;99.90
15872;DHT22;8035;51.962;7.162;2023-05-10T07:38:20;14.40;99.90
15872;DHT22;8035;51.962;7.162;2023-05-10T07:40:45;14.40;99.90
15872;DHT22;8035;51.962;7.162;2023-05-10T07:43:11;14.40;99.90
15872;DHT22;8035;51.962;7.162;2023-05-10T07:45:36;14.40;99.90
15872;DHT22;8035;51.962;7.162;2023-05-10T07:48:02;14.50;99.90
15872;DHT22;8035;51.962;7.162;2023-05-10T07:50:28;14.40;99.90
15872;DHT22;8035;51.962;7.162;2023-05-10T07:52:53;14.30;99.90
15872;DHT22;8035;51.962;7.162;2023-05-10T07:55:19;14.30;99.90
15872;DHT22;8035;51.962;7.162;2023-05-10T07:57:46;14.30;99.90
15872;DHT22;8035;51.962;7.162;2023-05-10T08:00:17;14.30;99.90
15872;DHT22;8035;51.962;7.162;2023-05-10T08:02:43;14.40;99.90
15872;DHT22;8035;51.962;7.162;2023-05-10T08:05:09;14.40;99.90
15872;DHT22;8035;51.962;7.162;2023-05-10T08:07:35;14.40;99.90
15872;DHT22;8035;51.962;7.162;2023-05-10T08:10:02;14.50;99.90
15872;DHT22;8035;51.962;7.162;2023-05-10T08:12:27;14.50;99.90
15872;DHT22;8035;51.962;7.162;2023-05-10T08:14:53;14.50;99.90
15872;DHT22;8035;51.962;7.162;2023-05-10T08:17:18;14.60;99.90
15872;DHT22;8035;51.962;7.162;2023-05-10T08:19:44;14.70;99.90
15872;DHT22;8035;51.962;7.162;2023-05-10T08:22:09;14.80;99.90
15872;DHT22;8035;51.962;7.162;2023-05-10T08:24:35;14.90;99.90
15872;DHT22;8035;51.962;7.162;2023-05-10T08:27:05;15.00;99.90
15872;DHT22;8035;51.962;7.162;2023-05-10T08:29:31;15.00;99.90
15872;DHT22;8035;51.962;7.162;2023-05-10T08:31:57;15.10;99.90
15872;DHT22;8035;51.962;7.162;2023-05-10T08:34:23;15.10;99.90
15872;DHT22;8035;51.962;7.162;2023-05-10T08:36:48;15.00;99.90
15872;DHT22;8035;51.962;7.162;2023-05-10T08:39:14;15.00;99.90
15872;DHT22;8035;51.962;7.162;2023-05-10T08:41:40;15.00;99.90
15872;DHT22;8035;51.962;7.162;2023-05-10T08:44:09;15.00;99.90
15872;DHT22;8035;51.962;7.162;2023-05-10T08:46:36;15.20;99.90
15872;DHT22;8035;51.962;7.162;2023-05-10T08:49:07;15.40;99.90
15872;DHT22;8035;51.962;7.162;2023-05-10T08:51:36;15.50;99.90
15872;DHT22;8035;51.962;7.162;2023-05-10T08:54:04;15.80;99.90
15872;DHT22;8035;51.962;7.162;2023-05-10T08:56:30;15.80;99.90
15872;DHT22;8035;51.962;7.162;2023-05-10T08:58:57;15.90;99.90
15872;DHT22;8035;51.962;7.162;2023-05-10T09:01:23;16.00;99.90
15872;DHT22;8035;51.962;7.162;2023-05-10T09:03:49;16.00;99.90
15872;DHT22;8035;51.962;7.162;2023-05-10T09:06:15;16.00;99.90
15872;DHT22;8035;51.962;7.162;2023-05-10T09:08:42;16.00;99.90
15872;DHT22;8035;51.962;7.162;2023-05-10T09:11:09;16.10;99.90
15872;DHT22;8035;51.962;7.162;2023-05-10T09:13:35;16.00;99.90
15872;DHT22;8035;51.962;7.162;2023-05-10T09:16:02;16.00;99.90
15872;DHT22;8035;51.962;7.162;2023-05-10T09:18:28;15.90;99.90
15872;DHT22;8035;51.962;7.162;2023-05-10T09:20:54;15.90;99.90
15872;DHT22;8035;51.962;7.162;2023-05-10T09:23:20;15.80;99.90
15872;DHT22;8035;51.962;7.162;2023-05-10T09:25:46;15.80;99.90
15872;DHT22;8035;51.962;7.162;2023-05-10T09:28:12;15.70;99.90
15872;DHT22;8035;51.962;7.162;2023-05-10T09:30:37;15.70;99.90
15872;DHT22;8035;51.962;7.162;2023-05-10T09:33:03;15.60;99.90
15872;DHT22;8035;51.962;7.162;2023-05-10T09:35:31;15.50;99.90
15872;DHT22;8035;51.962;7.162;2023-05-10T09:38:00;15.50;99.90
15872;DHT22;8035;51.962;7.162;2023-05-10T09:40:28;15.40;99.90
15872;DHT22;8035;51.962;7.162;2023-05-10T09:45:32;15.40;99.90
15872;DHT22;8035;51.962;7.162;2023-05-10T09:47:59;15.40;99.90
15872;DHT22;8035;51.962;7.162;2023-05-10T09:50:26;15.40;99.90
15872;DHT22;8035;51.962;7.162;2023-05-10T09:52:57;15.40;99.90
15872;DHT22;8035;51.962;7.162;2023-05-10T09:55:44;15.50;99.90
15872;DHT22;8035;51.962;7.162;2023-05-10T09:58:12;15.70;99.90
15872;DHT22;8035;51.962;7.162;2023-05-10T10:00:40;15.90;99.90
15872;DHT22;8035;51.962;7.162;2023-05-10T10:03:06;16.00;99.90
15872;DHT22;8035;51.962;7.162;2023-05-10T10:05:40;16.20;99.90
15872;DHT22;8035;51.962;7.162;2023-05-10T10:08:06;16.20;99.90
15872;DHT22;8035;51.962;7.162;2023-05-10T10:10:33;16.40;99.90
15872;DHT22;8035;51.962;7.162;2023-05-10T10:12:59;16.60;99.90
15872;DHT22;8035;51.962;7.162;2023-05-10T10:15:25;16.70;99.90
15872;DHT22;8035;51.962;7.162;2023-05-10T10:17:52;16.60;99.90
15872;DHT22;8035;51.962;7.162;2023-05-10T10:20:19;16.50;99.90
15872;DHT22;8035;51.962;7.162;2023-05-10T10:22:45;16.30;99.90
15872;DHT22;8035;51.962;7.162;2023-05-10T10:25:12;16.20;99.90
15872;DHT22;8035;51.962;7.162;2023-05-10T10:35:29;15.20;99.90
15872;DHT22;8035;51.962;7.162;2023-05-10T10:37:56;15.10;99.90
15872;DHT22;8035;51.962;7.162;2023-05-10T10:40:33;15.00;99.90
15872;DHT22;8035;51.962;7.162;2023-05-10T10:43:22;15.10;99.90
15872;DHT22;8035;51.962;7.162;2023-05-10T10:46:16;15.10;99.90
15872;DHT22;8035;51.962;7.162;2023-05-10T10:48:50;15.20;99.90
15872;DHT22;8035;51.962;7.162;2023-05-10T10:51:36;15.20;99.90
15872;DHT22;8035;51.962;7.162;2023-05-10T10:54:09;15.30;99.90
15872;DHT22;8035;51.962;7.162;2023-05-10T10:56:35;15.50;99.90
15872;DHT22;8035;51.962;7.162;2023-05-10T10:59:01;15.50;99.90
15872;DHT22;8035;51.962;7.162;2023-05-10T11:01:35;15.60;99.90
15872;DHT22;8035;51.962;7.162;2023-05-10T11:06:30;16.00;99.90
15872;DHT22;8035;51.962;7.162;2023-05-10T11:09:10;16.10;99.90
15872;DHT22;8035;51.962;7.162;2023-05-10T11:11:48;16.30;99.90
15872;DHT22;8035;51.962;7.162;2023-05-10T11:14:14;16.40;99.90
15872;DHT22;8035;51.962;7.162;2023-05-10T11:16:44;16.40;99.90
15872;DHT22;8035;51.962;7.162;2023-05-10T11:19:12;16.50;99.90
15872;DHT22;8035;51.962;7.162;2023-05-10T11:24:29;16.80;99.90
15872;DHT22;8035;51.962;7.162;2023-05-10T11:26:55;16.90;99.90
15872;DHT22;8035;51.962;7.162;2023-05-10T11:29:21;16.90;99.90
15872;DHT22;8035;51.962;7.162;2023-05-10T11:31:48;17.10;99.90
15872;DHT22;8035;51.962;7.162;2023-05-10T11:34:31;17.20;99.90
15872;DHT22;8035;51.962;7.162;2023-05-10T11:37:00;17.30;99.90
15872;DHT22;8035;51.962;7.162;2023-05-10T11:39:27;17.40;99.90
15872;DHT22;8035;51.962;7.162;2023-05-10T11:41:53;17.40;99.90
15872;DHT22;8035;51.962;7.162;2023-05-10T11:44:19;17.40;99.90
15872;DHT22;8035;51.962;7.162;2023-05-10T11:46:44;17.30;99.90
15872;DHT22;8035;51.962;7.162;2023-05-10T11:49:10;17.30;99.90
15872;DHT22;8035;51.962;7.162;2023-05-10T11:51:36;17.50;99.90
15872;DHT22;8035;51.962;7.162;2023-05-10T11:54:07;17.60;99.90
15872;DHT22;8035;51.962;7.162;2023-05-10T11:56:37;17.60;99.90
15872;DHT22;8035;51.962;7.162;2023-05-10T11:59:03;17.70;99.90
15872;DHT22;8035;51.962;7.162;2023-05-10T12:01:30;17.70;99.90
15872;DHT22;8035;51.962;7.162;2023-05-10T12:03:57;17.70;99.90
15872;DHT22;8035;51.962;7.162;2023-05-10T12:06:31;17.90;99.90
15872;DHT22;8035;51.962;7.162;2023-05-10T12:08:57;18.00;99.90
15872;DHT22;8035;51.962;7.162;2023-05-10T12:11:28;18.30;99.90
15872;DHT22;8035;51.962;7.162;2023-05-10T12:13:54;18.50;99.90
15872;DHT22;8035;51.962;7.162;2023-05-10T12:16:25;18.30;99.90
15872;DHT22;8035;51.962;7.162;2023-05-10T12:18:52;18.10;99.90
15872;DHT22;8035;51.962;7.162;2023-05-10T12:21:22;17.70;99.90
15872;DHT22;8035;51.962;7.162;2023-05-10T12:23:53;17.40;99.90
15872;DHT22;8035;51.962;7.162;2023-05-10T12:26:22;17.40;99.90
15872;DHT22;8035;51.962;7.162;2023-05-10T12:28:48;17.50;99.90
15872;DHT22;8035;51.962;7.162;2023-05-10T12:31:14;17.70;99.90
15872;DHT22;8035;51.962;7.162;2023-05-10T12:33:41;17.70;99.90
15872;DHT22;8035;51.962;7.162;2023-05-10T12:36:12;17.60;99.90
15872;DHT22;8035;51.962;7.162;2023-05-10T12:38:42;17.40;99.90
15872;DHT22;8035;51.962;7.162;2023-05-10T12:41:14;17.30;99.90
15872;DHT22;8035;51.962;7.162;2023-05-10T12:43:40;17.20;99.90
15872;DHT22;8035;51.962;7.162;2023-05-10T12:46:14;17.00;99.90
15872;DHT22;8035;51.962;7.162;2023-05-10T12:48:41;16.90;99.90
15872;DHT22;8035;51.962;7.162;2023-05-10T12:51:08;16.90;99.90
15872;DHT22;8035;51.962;7.162;2023-05-10T12:53:42;16.90;99.90
15872;DHT22;8035;51.962;7.162;2023-05-10T12:56:08;16.80;99.90
15872;DHT22;8035;51.962;7.162;2023-05-10T12:58:34;16.60;99.90
15872;DHT22;8035;51.962;7.162;2023-05-10T13:00:59;16.40;99.90
15872;DHT22;8035;51.962;7.162;2023-05-10T13:03:25;16.40;99.90
15872;DHT22;8035;51.962;7.162;2023-05-10T13:05:51;16.40;99.90
15872;DHT22;8035;51.962;7.162;2023-05-10T13:08:16;16.50;99.90
15872;DHT22;8035;51.962;7.162;2023-05-10T13:10:42;16.80;99.90
15872;DHT22;8035;51.962;7.162;2023-05-10T13:13:08;17.10;99.90
15872;DHT22;8035;51.962;7.162;2023-05-10T13:15:34;17.50;99.90
15872;DHT22;8035;51.962;7.162;2023-05-10T13:18:00;17.80;99.90
15872;DHT22;8035;51.962;7.162;2023-05-10T13:20:25;18.00;99.90
15872;DHT22;8035;51.962;7.162;2023-05-10T13:22:52;18.40;99.90
15872;DHT22;8035;51.962;7.162;2023-05-10T13:25:17;18.30;99.90
15872;DHT22;8035;51.962;7.162;2023-05-10T13:27:43;18.30;99.90
15872;DHT22;8035;51.962;7.162;2023-05-10T13:30:09;18.20;99.90
15872;DHT22;8035;51.962;7.162;2023-05-10T13:32:35;18.00;99.90
15872;DHT22;8035;51.962;7.162;2023-05-10T13:35:01;18.00;99.90
15872;DHT22;8035;51.962;7.162;2023-05-10T13:37:28;18.20;99.90
15872;DHT22;8035;51.962;7.162;2023-05-10T13:39:54;18.30;99.90
15872;DHT22;8035;51.962;7.162;2023-05-10T13:42:21;18.30;99.90
15872;DHT22;8035;51.962;7.162;2023-05-10T13:44:46;18.20;99.90
15872;DHT22;8035;51.962;7.162;2023-05-10T13:47:12;18.10;99.90
15872;DHT22;8035;51.962;7.162;2023-05-10T13:49:38;18.10;99.90
15872;DHT22;8035;51.962;7.162;2023-05-10T13:52:04;18.10;99.90
15872;DHT22;8035;51.962;7.162;2023-05-10T13:54:33;18.10;99.90
15872;DHT22;8035;51.962;7.162;2023-05-10T13:56:58;17.90;99.90
15872;DHT22;8035;51.962;7.162;2023-05-10T13:59:24;17.90;99.90
15872;DHT22;8035;51.962;7.162;2023-05-10T14:01:49;18.00;99.90
15872;DHT22;8035;51.962;7.162;2023-05-10T14:04:15;18.00;99.90
15872;DHT22;8035;51.962;7.162;2023-05-10T14:06:40;17.80;99.90
15872;DHT22;8035;51.962;7.162;2023-05-10T14:09:06;17.80;99.90
15872;DHT22;8035;51.962;7.162;2023-05-10T14:11:32;17.80;99.90
15872;DHT22;8035;51.962;7.162;2023-05-10T14:13:57;17.90;99.90
15872;DHT22;8035;51.962;7.162;2023-05-10T14:16:23;18.00;99.90
15872;DHT22;8035;51.962;7.162;2023-05-10T14:18:48;18.00;99.90
15872;DHT22;8035;51.962;7.162;2023-05-10T14:21:14;18.20;99.90
15872;DHT22;8035;51.962;7.162;2023-05-10T14:23:40;18.40;99.90
15872;DHT22;8035;51.962;7.162;2023-05-10T14:26:06;18.50;99.90
15872;DHT22;8035;51.962;7.162;2023-05-10T14:28:32;18.70;99.90
15872;DHT22;8035;51.962;7.162;2023-05-10T14:30:58;18.60;99.90
15872;DHT22;8035;51.962;7.162;2023-05-10T14:33:24;18.50;99.90
15872;DHT22;8035;51.962;7.162;2023-05-10T14:35:50;18.40;99.90
15872;DHT22;8035;51.962;7.162;2023-05-10T14:38:16;18.30;99.90
15872;DHT22;8035;51.962;7.162;2023-05-10T14:40:42;18.20;99.90
15872;DHT22;8035;51.962;7.162;2023-05-10T14:43:08;18.30;99.90
15872;DHT22;8035;51.962;7.162;2023-05-10T14:45:34;18.30;99.90
15872;DHT22;8035;51.962;7.162;2023-05-10T14:48:00;18.50;99.90
15872;DHT22;8035;51.962;7.162;2023-05-10T14:50:26;18.50;99.90
15872;DHT22;8035;51.962;7.162;2023-05-10T14:52:52;18.50;99.90
15872;DHT22;8035;51.962;7.162;2023-05-10T14:55:17;18.50;99.90
15872;DHT22;8035;51.962;7.162;2023-05-10T14:57:43;18.40;99.90
15872;DHT22;8035;51.962;7.162;2023-05-10T15:00:10;18.30;99.90
15872;DHT22;8035;51.962;7.162;2023-05-10T15:02:35;18.10;99.90
15872;DHT22;8035;51.962;7.162;2023-05-10T15:05:01;18.20;99.90
15872;DHT22;8035;51.962;7.162;2023-05-10T15:07:27;18.10;99.90
15872;DHT22;8035;51.962;7.162;2023-05-10T15:09:53;18.10;99.90
15872;DHT22;8035;51.962;7.162;2023-05-10T15:12:20;18.10;99.90
15872;DHT22;8035;51.962;7.162;2023-05-10T15:14:46;18.10;99.90
15872;DHT22;8035;51.962;7.162;2023-05-10T15:17:12;18.10;99.90
15872;DHT22;8035;51.962;7.162;2023-05-10T15:19:37;18.00;99.90
15872;DHT22;8035;51.962;7.162;2023-05-10T15:22:04;17.70;99.90
15872;DHT22;8035;51.962;7.162;2023-05-10T15:24:31;17.60;99.90
15872;DHT22;8035;51.962;7.162;2023-05-10T15:26:56;17.70;99.90
15872;DHT22;8035;51.962;7.162;2023-05-10T15:29:22;17.90;99.90
15872;DHT22;8035;51.962;7.162;2023-05-10T15:31:48;17.90;99.90
15872;DHT22;8035;51.962;7.162;2023-05-10T15:34:14;18.00;99.90
15872;DHT22;8035;51.962;7.162;2023-05-10T15:36:40;18.10;99.90
15872;DHT22;8035;51.962;7.162;2023-05-10T15:39:05;18.10;99.90
15872;DHT22;8035;51.962;7.162;2023-05-10T15:41:31;18.00;99.90
15872;DHT22;8035;51.962;7.162;2023-05-10T15:43:57;18.00;99.90
15872;DHT22;8035;51.962;7.162;2023-05-10T15:46:25;18.00;99.90
15872;DHT22;8035;51.962;7.162;2023-05-10T15:48:51;18.10;99.90
15872;DHT22;8035;51.962;7.162;2023-05-10T15:51:16;18.20;99.90
15872;DHT22;8035;51.962;7.162;2023-05-10T15:53:42;18.30;99.90
15872;DHT22;8035;51.962;7.162;2023-05-10T15:56:08;18.40;99.90
15872;DHT22;8035;51.962;7.162;2023-05-10T15:58:33;18.40;99.90
15872;DHT22;8035;51.962;7.162;2023-05-10T16:00:59;18.30;99.90
15872;DHT22;8035;51.962;7.162;2023-05-10T16:03:25;18.10;99.90
15872;DHT22;8035;51.962;7.162;2023-05-10T16:05:50;18.10;99.90
15872;DHT22;8035;51.962;7.162;2023-05-10T16:08:16;18.10;99.90
15872;DHT22;8035;51.962;7.162;2023-05-10T16:10:42;18.20;99.90
15872;DHT22;8035;51.962;7.162;2023-05-10T16:13:07;18.10;99.90
15872;DHT22;8035;51.962;7.162;2023-05-10T16:15:33;18.10;99.90